Impacts TAF Board
For situational awareness. Not to be used for flight planning purposes.
IDs:

KSEA - Seattle-Tacoma Intl, WA, US

Issued at 0539 UTC 08 May 2021
Updated at 0642 UTC 08 May 2021
Potential Impact None Slight Moderate High
Time0553Z 08/07Z 08/08Z 08/09Z 08/10Z 08/11Z 08/12Z 08/13Z 08/14Z 08/15Z 08/16Z 08/17Z 08/18Z 08/19Z>>
Type OBS PRVL PRVL PRVL PRVL PRVL PRVL PRVL PRVL PRVL PRVL PRVL PRVL PRVL
VIS 10 >6 >6 >6 >6 >6 >6 >6 >6 >6 >6 >6 >6 >6
CIG 44 35 35 35 35 35 35 22 22 22 22 22 22 35
Cover BKN BKN BKN OVC OVC OVC OVC OVC OVC OVC OVC OVC OVC OVC
FltCat VFR VFR VFR VFR VFR VFR VFR MVFR MVFR MVFR MVFR MVFR MVFR VFR
WX -- -SHRA -SHRA -- -- -- -- -- -- -- -- -- -- --
WDir 220 180 180 180 180 180 180 180 180 180 180 180 180 180
WSpd 8 8 8 8 8 8 8 8 8 8 8 8 8 8
WGst -- -- -- -- -- -- -- -- -- -- -- -- -- --
Raw TAF
KSEA 080539Z 0806/0912 18008KT P6SM -SHRA BKN035 BKN050
  FM080900 18008KT P6SM SCT025 BKN035 OVC050
  FM081300 18008KT P6SM BKN022 OVC035
  FM081900 18008KT P6SM SCT025 OVC035


Raw METAR
KSEA 080553Z 22008KT 10SM BKN044 BKN070 09/03 A3032 RMK AO2 RAE0458 SLP274 P0000 60000 T00940033 10150 20094 51013
KSEA 080453Z 20006KT 10SM -RA BKN040 BKN070 11/04 A3031 RMK AO2 RAB48 SLP272 P0000 T01060039
KSEA 080353Z 14006KT 10SM FEW041 BKN065 11/04 A3030 RMK AO2 SLP267 T01060044

METAR Board
Radar Display
Forecast Discussion
For situational awareness. Not to be used for flight planning purposes.